createdAt,value
2022-09-26T00:01:29.652Z,7.32
2022-09-26T00:04:04.979Z,6.10
2022-09-26T00:06:32.504Z,6.47
2022-09-26T00:09:00.173Z,6.10
2022-09-26T00:11:31.120Z,6.15
2022-09-26T00:14:01.462Z,5.80
2022-09-26T00:16:29.255Z,5.85
2022-09-26T00:18:59.005Z,6.03
2022-09-26T00:21:27.480Z,5.37
2022-09-26T00:23:55.664Z,5.78
2022-09-26T00:26:24.206Z,6.12
2022-09-26T00:28:51.835Z,5.97
2022-09-26T00:31:22.274Z,5.78
2022-09-26T00:33:50.468Z,5.67
2022-09-26T00:36:18.009Z,5.72
2022-09-26T00:38:46.263Z,6.15
2022-09-26T00:41:14.838Z,5.18
2022-09-26T00:43:45.104Z,5.20
2022-09-26T00:46:42.462Z,5.57
2022-09-26T00:49:27.563Z,5.62
2022-09-26T00:52:02.430Z,5.78
2022-09-26T00:54:31.097Z,5.57
2022-09-26T00:57:05.894Z,5.55
2022-09-26T00:59:36.132Z,4.97
2022-09-26T01:02:04.682Z,5.60
2022-09-26T01:04:34.319Z,5.40
2022-09-26T01:07:08.821Z,6.35
2022-09-26T01:09:37.507Z,6.40
2022-09-26T01:12:06.740Z,6.10
2022-09-26T01:14:35.625Z,5.68
2022-09-26T01:17:04.034Z,6.05
2022-09-26T01:19:41.876Z,6.03
2022-09-26T01:22:41.846Z,6.82
2022-09-26T01:25:21.801Z,6.20
2022-09-26T01:27:57.524Z,6.45
2022-09-26T01:30:26.754Z,6.90
2022-09-26T01:33:19.418Z,7.05
2022-09-26T01:36:01.953Z,7.20
2022-09-26T01:38:42.405Z,6.73
2022-09-26T01:41:34.098Z,7.20
2022-09-26T01:44:34.827Z,7.30
2022-09-26T01:47:11.275Z,7.68
2022-09-26T01:49:47.082Z,7.62
2022-09-26T01:52:32.312Z,8.47
2022-09-26T01:55:13.493Z,7.50
2022-09-26T01:58:10.872Z,8.15
2022-09-26T02:00:40.325Z,8.20
2022-09-26T02:03:11.485Z,8.52
2022-09-26T02:05:46.959Z,8.80
2022-09-26T02:08:25.225Z,8.98
2022-09-26T02:11:02.287Z,8.80
2022-09-26T02:13:35.509Z,7.78
2022-09-26T02:16:08.811Z,7.75
2022-09-26T02:18:58.316Z,10.07
2022-09-26T02:21:25.874Z,9.48
2022-09-26T02:23:54.533Z,9.25
2022-09-26T02:26:23.264Z,11.05
2022-09-26T02:28:51.774Z,11.00
2022-09-26T02:31:23.771Z,11.50
2022-09-26T02:33:52.701Z,11.52
2022-09-26T02:36:21.260Z,11.18
2022-09-26T02:38:49.502Z,10.10
2022-09-26T02:41:57.130Z,10.07
2022-09-26T02:44:34.665Z,11.33
2022-09-26T02:47:34.954Z,10.32
2022-09-26T02:50:27.118Z,10.25
2022-09-26T02:53:06.886Z,11.50
2022-09-26T02:56:11.811Z,10.52
2022-09-26T02:59:00.743Z,10.80
2022-09-26T03:01:47.250Z,11.48
2022-09-26T03:04:22.502Z,10.70
2022-09-26T03:06:53.692Z,9.57
2022-09-26T03:09:22.731Z,10.32
2022-09-26T03:11:52.799Z,11.30
2022-09-26T03:14:23.213Z,10.25
2022-09-26T03:16:51.727Z,10.23
2022-09-26T03:19:29.894Z,10.35
2022-09-26T03:21:59.965Z,10.57
2022-09-26T03:24:27.713Z,9.50
2022-09-26T03:26:56.239Z,10.40
2022-09-26T03:29:26.267Z,10.45
2022-09-26T03:31:53.971Z,10.15
2022-09-26T03:34:22.113Z,11.93
2022-09-26T03:36:50.452Z,10.50
2022-09-26T03:39:19.412Z,11.35
2022-09-26T03:41:47.174Z,12.00
2022-09-26T03:44:16.327Z,12.15
2022-09-26T03:46:47.323Z,13.57
2022-09-26T03:49:14.864Z,12.43
2022-09-26T03:51:44.260Z,14.60
2022-09-26T03:54:13.145Z,13.80
2022-09-26T03:56:41.252Z,13.60
2022-09-26T03:59:09.226Z,12.52
2022-09-26T04:01:37.431Z,12.60
2022-09-26T04:04:05.220Z,13.05
2022-09-26T04:06:32.952Z,13.00
2022-09-26T04:09:00.860Z,13.80
2022-09-26T04:11:29.532Z,14.87
2022-09-26T04:13:57.020Z,14.17
2022-09-26T04:16:24.801Z,14.90
2022-09-26T04:18:57.301Z,15.73
2022-09-26T04:21:27.200Z,18.92
2022-09-26T04:23:55.884Z,17.45
2022-09-26T04:26:24.663Z,16.23
2022-09-26T04:28:55.818Z,16.37
2022-09-26T04:31:26.270Z,16.00
2022-09-26T04:33:57.533Z,14.15
2022-09-26T04:36:25.367Z,15.18
2022-09-26T04:38:52.882Z,13.07
2022-09-26T04:41:22.086Z,12.20
2022-09-26T04:43:49.983Z,11.77
2022-09-26T04:46:24.565Z,12.70
2022-09-26T04:48:56.907Z,12.30
2022-09-26T04:51:27.504Z,11.57
2022-09-26T04:53:55.812Z,12.85
2022-09-26T04:56:25.222Z,12.50
2022-09-26T04:58:55.580Z,13.32
2022-09-26T05:01:24.554Z,14.95
2022-09-26T05:03:55.712Z,14.60
2022-09-26T05:06:23.641Z,14.18
2022-09-26T05:08:51.218Z,14.73
2022-09-26T05:11:21.504Z,14.65
2022-09-26T05:13:53.582Z,14.65
2022-09-26T05:16:22.149Z,15.30
2022-09-26T05:18:51.903Z,15.63
2022-09-26T05:21:19.728Z,15.05
2022-09-26T05:24:06.124Z,17.60
2022-09-26T05:26:44.745Z,19.42
2022-09-26T05:29:12.652Z,18.13
2022-09-26T05:31:41.116Z,23.33
2022-09-26T05:34:15.465Z,23.90
2022-09-26T05:36:46.563Z,18.70
2022-09-26T05:39:33.420Z,17.95
2022-09-26T05:42:02.515Z,15.93
2022-09-26T05:44:30.873Z,14.63
2022-09-26T05:46:59.513Z,13.75
2022-09-26T05:49:27.840Z,12.80
2022-09-26T05:51:56.611Z,13.95
2022-09-26T05:54:24.244Z,14.07
2022-09-26T05:56:52.452Z,14.38
2022-09-26T05:59:21.199Z,13.85
2022-09-26T06:01:50.729Z,14.57
2022-09-26T06:04:21.654Z,16.02
2022-09-26T06:06:51.696Z,14.43
2022-09-26T06:09:19.496Z,14.65
2022-09-26T06:11:47.379Z,16.10
2022-09-26T06:14:14.820Z,15.70
2022-09-26T06:16:42.599Z,16.77
2022-09-26T06:19:10.235Z,16.33
2022-09-26T06:21:39.923Z,17.27
2022-09-26T06:24:10.320Z,17.67
2022-09-26T06:26:37.905Z,16.05
2022-09-26T06:29:07.504Z,17.58
2022-09-26T06:31:35.627Z,16.57
2022-09-26T06:34:07.594Z,18.30
2022-09-26T06:36:35.872Z,17.95
2022-09-26T06:39:03.372Z,17.23
2022-09-26T06:41:31.779Z,17.40
2022-09-26T06:43:59.545Z,14.60
2022-09-26T06:46:27.953Z,14.65
2022-09-26T06:48:55.709Z,15.23
2022-09-26T06:51:24.421Z,15.90
2022-09-26T06:53:52.119Z,15.52
2022-09-26T06:56:19.939Z,15.10
2022-09-26T06:58:49.548Z,13.18
2022-09-26T07:01:18.488Z,12.05
2022-09-26T07:03:47.233Z,11.07
2022-09-26T07:06:15.481Z,12.02
2022-09-26T07:09:01.517Z,12.33
2022-09-26T07:11:50.354Z,12.57
2022-09-26T07:14:19.924Z,11.27
2022-09-26T07:16:52.018Z,11.40
2022-09-26T07:19:19.968Z,11.70
2022-09-26T07:21:48.545Z,11.83
2022-09-26T07:24:19.381Z,11.73
2022-09-26T07:26:46.930Z,10.55
2022-09-26T07:29:14.783Z,11.70
2022-09-26T07:31:43.583Z,11.90
2022-09-26T07:34:18.113Z,13.60
2022-09-26T07:36:47.439Z,13.27
2022-09-26T07:39:15.413Z,13.07
2022-09-26T07:41:45.805Z,13.70
2022-09-26T07:47:23.656Z,14.37
2022-09-26T07:50:10.001Z,14.32
2022-09-26T07:52:37.594Z,14.18
2022-09-26T07:55:07.608Z,13.98
2022-09-26T07:57:35.560Z,14.93
2022-09-26T08:00:09.552Z,12.90
2022-09-26T08:02:42.876Z,14.02
2022-09-26T08:05:17.785Z,15.57
2022-09-26T08:07:46.212Z,15.88
2022-09-26T08:10:22.186Z,15.60
2022-09-26T08:13:01.671Z,14.20
2022-09-26T08:15:29.552Z,14.65
2022-09-26T08:17:57.598Z,15.00
2022-09-26T08:20:29.825Z,14.48
2022-09-26T08:23:00.512Z,13.62
2022-09-26T08:25:28.018Z,14.07
2022-09-26T08:27:59.517Z,13.82
2022-09-26T08:30:27.687Z,13.05
2022-09-26T08:32:56.824Z,12.90
2022-09-26T08:35:24.511Z,12.85
2022-09-26T08:37:53.309Z,12.00
2022-09-26T08:40:51.400Z,12.23
2022-09-26T08:43:48.150Z,12.85
2022-09-26T08:46:30.610Z,12.37
2022-09-26T08:49:44.233Z,11.60
2022-09-26T08:52:28.110Z,11.20
2022-09-26T08:54:58.698Z,10.60
2022-09-26T08:57:40.892Z,11.65
2022-09-26T09:00:24.915Z,9.90
2022-09-26T09:03:14.458Z,10.65
2022-09-26T09:05:53.734Z,9.90
2022-09-26T09:08:36.642Z,10.10
2022-09-26T09:11:50.685Z,10.07
2022-09-26T09:14:40.795Z,9.35
2022-09-26T09:17:33.839Z,9.00
2022-09-26T09:20:10.938Z,9.43
2022-09-26T09:23:00.890Z,9.18
2022-09-26T09:25:35.670Z,8.90
2022-09-26T09:28:33.292Z,9.32
2022-09-26T09:31:02.716Z,9.55
2022-09-26T09:33:38.017Z,10.10
2022-09-26T09:36:18.690Z,9.55
2022-09-26T09:38:51.260Z,9.73
2022-09-26T09:41:28.292Z,10.70
2022-09-26T09:44:16.228Z,9.27
2022-09-26T09:46:43.792Z,9.43
2022-09-26T09:49:21.536Z,8.73
2022-09-26T09:51:49.029Z,9.45
2022-09-26T09:54:39.121Z,9.52
2022-09-26T09:57:16.032Z,9.48
2022-09-26T10:00:07.120Z,8.93
2022-09-26T10:03:02.256Z,9.45
2022-09-26T10:05:45.277Z,8.77
2022-09-26T10:08:22.660Z,9.18
2022-09-26T10:10:58.698Z,8.80
2022-09-26T10:13:32.671Z,8.40
2022-09-26T10:16:05.619Z,8.13
2022-09-26T10:18:56.378Z,8.27
2022-09-26T10:21:34.364Z,9.57
2022-09-26T10:24:04.773Z,9.25
2022-09-26T10:26:37.068Z,8.57
2022-09-26T10:29:24.954Z,7.85
2022-09-26T10:31:58.006Z,7.18
2022-09-26T10:34:30.756Z,7.15
2022-09-26T10:37:18.519Z,6.85
2022-09-26T10:40:11.377Z,5.23
2022-09-26T10:42:40.162Z,6.25
2022-09-26T10:45:21.183Z,5.50
2022-09-26T10:47:52.782Z,5.62
2022-09-26T10:50:29.436Z,5.65
2022-09-26T10:53:08.380Z,5.20
2022-09-26T10:55:45.319Z,5.90
2022-09-26T10:58:24.016Z,5.28
2022-09-26T11:00:53.875Z,5.60
2022-09-26T11:03:34.381Z,4.97
2022-09-26T11:06:04.067Z,5.53
2022-09-26T11:08:34.116Z,5.93
2022-09-26T11:11:12.561Z,5.82
2022-09-26T11:14:03.832Z,6.03
2022-09-26T11:16:43.310Z,5.95
2022-09-26T11:19:36.913Z,5.27
2022-09-26T11:22:32.389Z,4.85
2022-09-26T11:25:08.054Z,4.65
2022-09-26T11:27:48.868Z,4.80
2022-09-26T11:30:20.842Z,5.10
2022-09-26T11:32:51.568Z,4.40
2022-09-26T11:35:33.397Z,5.03
2022-09-26T11:38:16.439Z,4.62
2022-09-26T11:41:07.219Z,4.25
2022-09-26T11:43:49.397Z,4.80
2022-09-26T11:46:46.225Z,4.63
2022-09-26T11:49:46.102Z,4.70
2022-09-26T11:52:49.555Z,5.28
2022-09-26T11:55:28.117Z,5.00
2022-09-26T11:58:20.687Z,4.25
2022-09-26T12:01:00.573Z,4.47
2022-09-26T12:03:51.220Z,4.85
2022-09-26T12:06:35.002Z,4.70
2022-09-26T12:09:16.633Z,4.25
2022-09-26T12:12:03.776Z,4.25
2022-09-26T12:14:35.059Z,4.27
2022-09-26T12:17:25.414Z,4.60
2022-09-26T12:20:20.398Z,4.40
2022-09-26T12:22:53.830Z,4.05
2022-09-26T12:25:36.179Z,3.37
2022-09-26T12:28:12.333Z,3.97
2022-09-26T12:30:47.703Z,4.53
2022-09-26T12:33:30.484Z,4.22
2022-09-26T12:36:28.539Z,3.78
2022-09-26T12:39:22.082Z,3.80
2022-09-26T12:42:17.248Z,3.50
2022-09-26T12:45:06.698Z,3.05
2022-09-26T12:47:40.649Z,2.78
2022-09-26T12:50:24.931Z,2.75
2022-09-26T12:52:55.721Z,3.20
2022-09-26T12:55:59.049Z,3.43
2022-09-26T12:58:47.076Z,3.35
2022-09-26T13:01:28.474Z,3.15
2022-09-26T13:04:16.622Z,3.28
2022-09-26T13:07:07.688Z,3.28
2022-09-26T13:10:12.991Z,3.30
2022-09-26T13:13:10.144Z,3.80
2022-09-26T13:16:16.135Z,3.22
2022-09-26T13:18:49.265Z,3.85
2022-09-26T13:21:38.946Z,3.62
2022-09-26T13:24:13.843Z,2.77
2022-09-26T13:26:47.021Z,3.22
2022-09-26T13:29:20.768Z,3.35
2022-09-26T13:32:11.156Z,3.40
2022-09-26T13:34:50.239Z,3.10
2022-09-26T13:37:37.468Z,3.20
2022-09-26T13:40:33.205Z,2.97
2022-09-26T13:43:07.845Z,3.50
2022-09-26T13:45:44.207Z,3.22
2022-09-26T13:48:18.924Z,3.45
2022-09-26T13:50:55.555Z,3.13
2022-09-26T13:53:34.615Z,3.00
2022-09-26T13:56:30.575Z,2.95
2022-09-26T13:59:18.009Z,3.20
2022-09-26T14:02:16.797Z,3.05
2022-09-26T14:04:48.477Z,2.73
2022-09-26T14:07:36.747Z,2.83
2022-09-26T14:10:13.897Z,2.92
2022-09-26T14:12:53.613Z,2.83
2022-09-26T14:15:27.061Z,2.30
2022-09-26T14:18:13.003Z,2.20
2022-09-26T14:21:17.472Z,2.40
2022-09-26T14:23:47.632Z,5.93
2022-09-26T14:26:19.454Z,3.67
2022-09-26T14:28:53.267Z,2.50
2022-09-26T14:31:27.077Z,6.17
2022-09-26T14:34:15.948Z,4.22
2022-09-26T14:36:45.692Z,2.60
2022-09-26T14:39:33.431Z,2.15
2022-09-26T14:42:15.746Z,2.33
2022-09-26T14:44:58.168Z,3.37
2022-09-26T14:47:28.246Z,2.70
2022-09-26T14:50:03.221Z,2.47
2022-09-26T14:52:31.730Z,2.30
2022-09-26T14:55:01.355Z,2.72
2022-09-26T14:57:32.109Z,2.57
2022-09-26T15:00:01.121Z,2.80
2022-09-26T15:02:40.217Z,2.40
2022-09-26T15:05:24.424Z,2.10
2022-09-26T15:07:53.795Z,2.67
2022-09-26T15:10:35.461Z,2.70
2022-09-26T15:13:18.268Z,2.42
2022-09-26T15:15:50.966Z,2.30
2022-09-26T15:18:18.420Z,2.30
2022-09-26T15:20:52.052Z,2.30
2022-09-26T15:23:32.817Z,2.30
2022-09-26T15:26:02.800Z,2.08
2022-09-26T15:28:37.506Z,2.45
2022-09-26T15:31:40.907Z,2.47
2022-09-26T15:34:16.478Z,2.50
2022-09-26T15:36:48.445Z,2.33
2022-09-26T15:39:31.308Z,1.98
2022-09-26T15:42:18.596Z,2.42
2022-09-26T15:44:48.668Z,2.28
2022-09-26T15:47:31.920Z,2.40
2022-09-26T15:50:10.165Z,2.20
2022-09-26T15:52:41.247Z,2.33
2022-09-26T15:55:16.300Z,2.47
2022-09-26T15:57:45.493Z,2.70
2022-09-26T16:00:14.904Z,2.67
2022-09-26T16:02:43.229Z,2.90
2022-09-26T16:05:13.010Z,2.50
2022-09-26T16:07:41.672Z,2.30
2022-09-26T16:10:33.258Z,2.50
2022-09-26T16:13:01.337Z,4.15
2022-09-26T16:15:30.556Z,12.23
2022-09-26T16:17:58.707Z,4.68
2022-09-26T16:20:31.396Z,3.10
2022-09-26T16:23:05.203Z,2.75
2022-09-26T16:25:35.205Z,14.50
2022-09-26T16:28:08.737Z,4.43
2022-09-26T16:30:42.195Z,2.78
2022-09-26T16:33:21.476Z,2.30
2022-09-26T16:35:49.028Z,2.33
2022-09-26T16:38:32.653Z,2.87
2022-09-26T16:41:13.926Z,3.70
2022-09-26T16:43:41.668Z,2.90
2022-09-26T16:46:14.616Z,2.80
2022-09-26T16:48:53.381Z,2.42
2022-09-26T16:51:23.696Z,2.47
2022-09-26T16:53:53.431Z,2.83
2022-09-26T16:56:23.428Z,2.53
2022-09-26T16:58:56.809Z,2.83
2022-09-26T17:01:43.457Z,2.53
2022-09-26T17:04:13.481Z,2.83
2022-09-26T17:06:40.985Z,2.83
2022-09-26T17:09:29.742Z,2.40
2022-09-26T17:12:03.798Z,2.95
2022-09-26T17:14:40.461Z,2.72
2022-09-26T17:17:16.167Z,2.90
2022-09-26T17:19:46.200Z,2.87
2022-09-26T17:22:19.343Z,3.12
2022-09-26T17:24:48.033Z,3.03
2022-09-26T17:27:27.711Z,2.83
2022-09-26T17:29:59.795Z,3.12
2022-09-26T17:32:30.751Z,2.93
2022-09-26T17:35:00.902Z,2.50
2022-09-26T17:37:29.170Z,2.72
2022-09-26T17:39:57.009Z,2.55
2022-09-26T17:42:25.278Z,3.17
2022-09-26T17:44:53.989Z,3.20
2022-09-26T17:47:23.577Z,3.10
2022-09-26T17:49:54.796Z,3.37
2022-09-26T17:52:25.882Z,2.97
2022-09-26T17:54:57.257Z,3.33
2022-09-26T17:57:25.651Z,3.37
2022-09-26T17:59:54.720Z,3.50
2022-09-26T18:02:24.287Z,3.25
2022-09-26T18:04:53.995Z,3.47
2022-09-26T18:07:22.399Z,2.90
2022-09-26T18:09:51.363Z,3.20
2022-09-26T18:12:24.972Z,3.60
2022-09-26T18:14:52.547Z,3.33
2022-09-26T18:17:21.953Z,3.67
2022-09-26T18:19:50.674Z,3.22
2022-09-26T18:22:19.895Z,3.07
2022-09-26T18:24:50.698Z,3.85
2022-09-26T18:27:18.309Z,3.75
2022-09-26T18:29:48.935Z,3.90
2022-09-26T18:32:25.993Z,4.25
2022-09-26T18:34:53.958Z,4.40
2022-09-26T18:37:21.730Z,4.43
2022-09-26T18:39:53.727Z,4.43
2022-09-26T18:42:24.398Z,3.92
2022-09-26T18:45:00.573Z,3.95
2022-09-26T18:47:28.402Z,3.90
2022-09-26T18:49:56.001Z,4.12
2022-09-26T18:52:24.045Z,4.50
2022-09-26T18:55:11.816Z,4.75
2022-09-26T18:57:58.078Z,4.55
2022-09-26T19:00:27.909Z,3.90
2022-09-26T19:02:57.134Z,4.37
2022-09-26T19:05:25.668Z,4.03
2022-09-26T19:07:53.588Z,4.07
2022-09-26T19:10:22.402Z,4.32
2022-09-26T19:12:49.905Z,3.50
2022-09-26T19:15:18.077Z,4.20
2022-09-26T19:17:45.515Z,4.22
2022-09-26T19:20:13.024Z,4.12
2022-09-26T19:22:40.895Z,4.00
2022-09-26T19:25:10.080Z,3.80
2022-09-26T19:27:48.970Z,4.07
2022-09-26T19:30:18.425Z,4.03
2022-09-26T19:32:51.168Z,3.97
2022-09-26T19:35:35.084Z,4.18
2022-09-26T19:38:04.501Z,3.87
2022-09-26T19:40:32.862Z,3.67
2022-09-26T19:43:00.369Z,4.20
2022-09-26T19:45:32.339Z,3.92
2022-09-26T19:48:00.418Z,3.75
2022-09-26T19:50:28.342Z,3.60
2022-09-26T19:52:58.184Z,4.00
2022-09-26T19:55:30.537Z,4.15
2022-09-26T19:58:02.625Z,3.75
2022-09-26T20:00:31.174Z,4.65
2022-09-26T20:02:59.052Z,3.97
2022-09-26T20:05:26.568Z,3.87
2022-09-26T20:07:54.064Z,3.85
2022-09-26T20:10:25.273Z,4.45
2022-09-26T20:12:53.895Z,3.95
2022-09-26T20:15:21.459Z,3.87
2022-09-26T20:17:49.390Z,4.03
2022-09-26T20:20:20.320Z,4.15
2022-09-26T20:22:47.917Z,4.20
2022-09-26T20:25:21.429Z,4.22
2022-09-26T20:27:50.888Z,4.10
2022-09-26T20:30:37.998Z,3.72
2022-09-26T20:33:06.249Z,4.05
2022-09-26T20:35:36.942Z,3.83
2022-09-26T20:38:07.776Z,4.25
2022-09-26T20:40:35.914Z,4.00
2022-09-26T20:43:11.432Z,3.97
2022-09-26T20:45:40.897Z,4.35
2022-09-26T20:48:18.412Z,4.30
2022-09-26T20:50:48.257Z,4.20
2022-09-26T20:53:20.239Z,4.13
2022-09-26T20:55:48.206Z,4.45
2022-09-26T20:58:15.769Z,4.53
2022-09-26T21:00:44.169Z,4.78
2022-09-26T21:03:13.421Z,4.87
2022-09-26T21:05:41.265Z,4.60
2022-09-26T21:08:35.109Z,4.45
2022-09-26T21:11:02.893Z,4.45
2022-09-26T21:13:30.385Z,5.00
2022-09-26T21:15:57.863Z,4.72
2022-09-26T21:18:28.487Z,5.00
2022-09-26T21:21:04.079Z,5.00
2022-09-26T21:23:40.962Z,5.03
2022-09-26T21:26:17.324Z,4.20
2022-09-26T21:28:45.134Z,5.12
2022-09-26T21:31:31.759Z,5.57
2022-09-26T21:34:00.326Z,4.70
2022-09-26T21:36:35.033Z,4.87
2022-09-26T21:39:03.657Z,4.60
2022-09-26T21:41:31.163Z,4.82
2022-09-26T21:44:06.136Z,5.53
2022-09-26T21:46:33.914Z,4.65
2022-09-26T21:49:04.204Z,5.00
2022-09-26T21:51:31.891Z,5.10
2022-09-26T21:54:24.636Z,5.12
2022-09-26T21:57:01.961Z,5.33
2022-09-26T21:59:29.904Z,5.55
2022-09-26T22:01:57.388Z,4.82
2022-09-26T22:04:25.143Z,5.43
2022-09-26T22:06:52.626Z,4.47
2022-09-26T22:09:20.057Z,4.83
2022-09-26T22:11:53.344Z,5.12
2022-09-26T22:14:20.798Z,4.95
2022-09-26T22:16:48.617Z,4.72
2022-09-26T22:19:16.698Z,5.35
2022-09-26T22:21:44.339Z,5.13
2022-09-26T22:24:12.317Z,4.97
2022-09-26T22:26:39.925Z,5.15
2022-09-26T22:29:07.728Z,4.97
2022-09-26T22:31:35.728Z,5.15
2022-09-26T22:34:03.123Z,5.77
2022-09-26T22:36:32.611Z,5.18
2022-09-26T22:39:00.550Z,5.12
2022-09-26T22:41:28.008Z,5.03
2022-09-26T22:43:55.529Z,4.85
2022-09-26T22:46:23.350Z,4.67
2022-09-26T22:48:50.851Z,4.72
2022-09-26T22:51:18.312Z,5.15
2022-09-26T22:53:46.072Z,5.15
2022-09-26T22:56:15.013Z,5.30
2022-09-26T22:58:48.184Z,5.20
2022-09-26T23:01:19.184Z,5.28
2022-09-26T23:03:46.644Z,5.78
2022-09-26T23:06:14.201Z,5.03
2022-09-26T23:08:42.021Z,5.62
2022-09-26T23:11:11.543Z,6.00
2022-09-26T23:13:39.598Z,6.12
2022-09-26T23:16:12.646Z,6.60
2022-09-26T23:18:41.501Z,6.72
2022-09-26T23:21:13.622Z,6.25
2022-09-26T23:23:46.045Z,5.77
2022-09-26T23:26:20.565Z,5.35
2022-09-26T23:28:48.329Z,6.18
2022-09-26T23:31:16.397Z,6.22
2022-09-26T23:33:44.074Z,7.10
2022-09-26T23:36:12.322Z,5.73
2022-09-26T23:38:40.823Z,5.37
2022-09-26T23:41:09.628Z,5.68
2022-09-26T23:43:37.455Z,5.87
2022-09-26T23:46:05.623Z,5.55
2022-09-26T23:48:33.202Z,4.90
2022-09-26T23:51:01.113Z,5.10
2022-09-26T23:53:28.869Z,5.45
2022-09-26T23:56:07.036Z,5.40
2022-09-26T23:58:35.960Z,4.78
